Terminal Aerodrome Forecast
Issued by NWS

Home | Current Version | Previous Version | Text Only | Print | Product List | Glossary On
Versions: 1 2 3 4 5 6 7 8 9 10 11 12 13
000
FTUS46 KOTX 152331
TAFSFF
TAF
KSFF 152331Z 1600/1624 29008G18KT P6SM VCSH SCT050 BKN080 BKN100
     FM160200 28006KT P6SM FEW070 SCT150
     FM160700 VRB03KT P6SM SCT070 BKN150
     FM161200 21005KT P6SM BKN070 OVC100
     FM161600 18006KT P6SM VCSH BKN040 OVC060
     FM161900 22008KT P6SM -SHRA BKN050 OVC060=

USA.gov is the U.S. government's official web portal to all federal, state and local government web resources and services.